Time;durP1;ratioP1;P1;durP2;ratioP2;P2;SDS_P1;SDS_P2;PMS_P1;PMS_P2;Temp;Humidity;BMP_temperature;BMP_pressure;BME280_temperature;BME280_humidity;BME280_pressure;Samples;Min_cycle;Max_cycle;Signal;HPM_P1;HPM_P2
2023/04/13 00:02:23;;;;;;;0.10;0.10;;;8.50;99.90;;;;;;5011869;28;20057;-62
2023/04/13 00:04:49;;;;;;;0.00;0.00;;;8.50;99.90;;;;;;5011431;28;20046;-62
2023/04/13 00:07:16;;;;;;;0.30;0.30;;;8.50;99.90;;;;;;5012400;28;20046;-62
2023/04/13 00:09:44;;;;;;;0.10;0.10;;;8.50;99.90;;;;;;5012502;28;20108;-62
2023/04/13 00:12:11;;;;;;;0.10;0.10;;;8.50;99.90;;;;;;5026138;28;20049;-62
2023/04/13 00:14:38;;;;;;;0.08;0.08;;;8.50;99.90;;;;;;5012087;28;20034;-62
2023/04/13 00:17:03;;;;;;;0.03;0.03;;;8.40;99.90;;;;;;5010308;28;20117;-63
2023/04/13 00:19:29;;;;;;;0.10;0.10;;;8.20;99.90;;;;;;5010874;28;20050;-63
2023/04/13 00:21:56;;;;;;;0.00;0.00;;;8.10;99.90;;;;;;5019993;28;20050;-63
2023/04/13 00:24:21;;;;;;;3.63;1.90;;;8.00;99.90;;;;;;5019788;28;20060;-63
2023/04/13 00:26:47;;;;;;;0.10;0.10;;;7.80;99.90;;;;;;5018040;28;20472;-63
2023/04/13 00:29:13;;;;;;;0.10;0.10;;;7.80;99.90;;;;;;5021975;28;20122;-63
2023/04/13 00:31:38;;;;;;;0.03;0.03;;;7.70;99.90;;;;;;5009865;28;20486;-63
2023/04/13 00:34:05;;;;;;;0.00;0.00;;;7.70;99.90;;;;;;5021722;28;20107;-63
2023/04/13 00:36:31;;;;;;;0.10;0.10;;;7.50;99.90;;;;;;5010552;28;20384;-63
2023/04/13 00:38:57;;;;;;;15.90;1.45;;;7.50;99.90;;;;;;5010720;28;20029;-63
2023/04/13 00:41:23;;;;;;;0.10;0.10;;;7.60;99.90;;;;;;5019982;28;20106;-63
2023/04/13 00:43:49;;;;;;;0.10;0.10;;;7.50;99.90;;;;;;5010494;28;20038;-63
2023/04/13 00:46:21;;;;;;;0.10;0.10;;;7.50;99.90;;;;;;5009577;28;20060;-61
2023/04/13 00:48:47;;;;;;;0.10;0.10;;;7.40;99.90;;;;;;5015951;28;20038;-63
2023/04/13 00:51:16;;;;;;;0.10;0.10;;;7.40;99.90;;;;;;5018124;28;20057;-63
2023/04/13 00:53:42;;;;;;;0.17;0.17;;;7.50;99.90;;;;;;5010638;28;20116;-63
2023/04/13 00:56:09;;;;;;;0.40;0.40;;;7.50;99.90;;;;;;5009959;28;20137;-63
2023/04/13 00:58:36;;;;;;;0.20;0.20;;;7.40;99.90;;;;;;5010423;28;20054;-63
2023/04/13 01:01:03;;;;;;;0.20;0.20;;;7.40;99.90;;;;;;5013945;28;20142;-62
2023/04/13 01:03:28;;;;;;;0.20;0.20;;;7.40;99.90;;;;;;5012961;28;20084;-63
2023/04/13 01:06:17;;;;;;;0.10;0.10;;;7.40;99.90;;;;;;5009395;28;20046;-63
2023/04/13 01:09:03;;;;;;;0.00;0.00;;;7.40;99.90;;;;;;5008729;28;20500;-63
2023/04/13 01:12:12;;;;;;;1.65;1.55;;;7.50;99.90;;;;;;5018124;28;20127;-63
2023/04/13 01:14:49;;;;;;;0.10;0.10;;;7.40;99.90;;;;;;4989661;28;20465;-62
2023/04/13 01:17:22;;;;;;;0.10;0.10;;;7.40;99.90;;;;;;5009808;28;20125;-63
2023/04/13 01:19:58;;;;;;;0.10;0.10;;;7.40;99.90;;;;;;5009038;28;20038;-63
2023/04/13 01:22:28;;;;;;;0.10;0.10;;;7.40;99.90;;;;;;5009869;28;20054;-63
2023/04/13 01:25:00;;;;;;;0.10;0.10;;;7.40;99.90;;;;;;5009567;28;20038;-63
2023/04/13 01:27:54;;;;;;;0.35;0.35;;;7.40;99.90;;;;;;5018375;28;20045;-63
2023/04/13 01:30:22;;;;;;;0.10;0.10;;;7.40;99.90;;;;;;5010579;28;20057;-63
2023/04/13 01:32:51;;;;;;;0.00;0.00;;;7.40;99.90;;;;;;5009636;28;20053;-63
2023/04/13 01:35:18;;;;;;;0.10;0.10;;;7.40;99.90;;;;;;5008255;28;20077;-63
2023/04/13 01:37:45;;;;;;;0.10;0.10;;;7.40;99.90;;;;;;5012349;28;20056;-63
2023/04/13 01:40:12;;;;;;;0.10;0.10;;;7.40;99.90;;;;;;5021896;28;20061;-63
2023/04/13 01:42:45;;;;;;;0.35;0.35;;;7.40;99.90;;;;;;5019643;28;20103;-63
2023/04/13 01:45:17;;;;;;;0.10;0.10;;;7.40;99.90;;;;;;5008573;28;20611;-63
2023/04/13 01:47:56;;;;;;;0.10;0.10;;;7.40;99.90;;;;;;5019010;28;20037;-63
2023/04/13 01:50:34;;;;;;;0.00;0.00;;;7.40;99.90;;;;;;5019658;28;20074;-63
2023/04/13 01:53:07;;;;;;;0.10;0.10;;;7.40;99.90;;;;;;5014196;28;20086;-63
2023/04/13 01:55:37;;;;;;;0.00;0.00;;;7.40;99.90;;;;;;5012308;28;20056;-63
2023/04/13 01:58:04;;;;;;;0.10;0.10;;;7.40;99.90;;;;;;5010041;28;20053;-62
2023/04/13 02:00:35;;;;;;;0.03;0.03;;;7.50;99.90;;;;;;5008262;28;20099;-62
2023/04/13 02:03:04;;;;;;;0.10;0.10;;;7.40;99.90;;;;;;5009008;28;20048;-63
2023/04/13 02:05:30;;;;;;;0.10;0.10;;;7.40;99.90;;;;;;5018262;28;20513;-63
2023/04/13 02:07:56;;;;;;;0.10;0.10;;;7.40;99.90;;;;;;5010783;28;20479;-63
2023/04/13 02:10:21;;;;;;;0.10;0.10;;;7.40;99.90;;;;;;5009795;28;20050;-63
2023/04/13 02:12:47;;;;;;;0.10;0.10;;;7.40;99.90;;;;;;5012634;28;20053;-63
2023/04/13 02:15:13;;;;;;;0.10;0.10;;;7.40;99.90;;;;;;5011385;28;20045;-63
2023/04/13 02:17:39;;;;;;;0.08;0.08;;;7.40;99.90;;;;;;5019358;28;20058;-63
2023/04/13 02:20:12;;;;;;;0.10;0.10;;;7.50;99.90;;;;;;5009537;28;20394;-62
2023/04/13 02:22:40;;;;;;;0.10;0.10;;;7.40;99.90;;;;;;5008774;28;20057;-63
2023/04/13 02:25:07;;;;;;;0.08;0.08;;;7.40;99.90;;;;;;5018413;28;20041;-62
2023/04/13 02:27:34;;;;;;;0.10;0.10;;;7.30;99.90;;;;;;5008871;28;20038;-63
2023/04/13 02:30:00;;;;;;;0.10;0.10;;;7.40;99.90;;;;;;5009945;28;20041;-62
2023/04/13 02:32:26;;;;;;;0.30;0.30;;;7.40;99.90;;;;;;5023654;28;20048;-63
2023/04/13 02:34:52;;;;;;;2.42;1.55;;;7.30;99.90;;;;;;5012718;28;20501;-64
2023/04/13 02:37:19;;;;;;;0.10;0.10;;;7.30;99.90;;;;;;5011999;28;20058;-64
2023/04/13 02:39:45;;;;;;;0.30;0.30;;;7.20;99.90;;;;;;5012731;28;20078;-64
2023/04/13 02:42:10;;;;;;;0.28;0.28;;;7.00;99.90;;;;;;5012718;28;20143;-64
2023/04/13 02:44:37;;;;;;;0.10;0.10;;;6.80;99.90;;;;;;5012520;28;20045;-64
2023/04/13 02:47:03;;;;;;;1.42;1.35;;;6.70;99.90;;;;;;5014521;28;20045;-64
2023/04/13 02:49:29;;;;;;;0.00;0.00;;;6.60;99.90;;;;;;5031422;28;20046;-64
2023/04/13 02:51:54;;;;;;;0.00;0.00;;;6.70;99.90;;;;;;5014185;28;20069;-64
2023/04/13 02:54:20;;;;;;;0.10;0.10;;;6.60;99.90;;;;;;5013319;28;20041;-63
2023/04/13 02:56:46;;;;;;;0.20;0.20;;;6.70;99.90;;;;;;5016869;28;20077;-64
2023/04/13 02:59:12;;;;;;;0.10;0.10;;;6.80;99.90;;;;;;5019083;28;20046;-64
2023/04/13 03:01:38;;;;;;;0.10;0.10;;;6.90;99.90;;;;;;5016942;28;20037;-64
2023/04/13 03:04:04;;;;;;;0.63;0.63;;;6.80;99.90;;;;;;5012766;28;20889;-64
2023/04/13 03:06:30;;;;;;;0.00;0.00;;;6.90;99.90;;;;;;5010693;28;20042;-64
2023/04/13 03:08:55;;;;;;;0.00;0.00;;;6.90;99.90;;;;;;5012579;28;20466;-64
2023/04/13 03:11:25;;;;;;;0.10;0.10;;;7.00;99.90;;;;;;5010912;28;20034;-64
2023/04/13 03:13:52;;;;;;;0.10;0.10;;;7.00;99.90;;;;;;5010879;28;20076;-63
2023/04/13 03:16:18;;;;;;;0.00;0.00;;;7.10;99.90;;;;;;5019967;28;20049;-64
2023/04/13 03:18:44;;;;;;;0.05;0.05;;;7.00;99.90;;;;;;5025166;28;20589;-64
2023/04/13 03:21:11;;;;;;;0.10;0.10;;;7.10;99.90;;;;;;5013521;28;20213;-63
2023/04/13 03:23:37;;;;;;;0.10;0.10;;;7.10;99.90;;;;;;5010756;28;20041;-64
2023/04/13 03:26:03;;;;;;;0.10;0.10;;;7.20;99.90;;;;;;5020801;28;20034;-63
2023/04/13 03:28:28;;;;;;;0.00;0.00;;;7.20;99.90;;;;;;5019164;28;20045;-64
2023/04/13 03:30:54;;;;;;;0.10;0.10;;;7.10;99.90;;;;;;5014840;28;20137;-64
2023/04/13 03:33:20;;;;;;;0.10;0.10;;;7.10;99.90;;;;;;5019745;28;20100;-64
2023/04/13 03:35:46;;;;;;;0.15;0.15;;;7.10;99.90;;;;;;5012131;28;20046;-64
2023/04/13 03:38:11;;;;;;;0.52;0.52;;;7.10;99.90;;;;;;5011735;28;20050;-63
2023/04/13 03:40:37;;;;;;;0.10;0.10;;;7.00;99.90;;;;;;5022593;28;20033;-63
2023/04/13 03:43:03;;;;;;;0.25;0.25;;;7.00;99.90;;;;;;5020814;28;20038;-64
2023/04/13 03:45:28;;;;;;;0.10;0.10;;;7.00;99.90;;;;;;5012942;28;20041;-64
2023/04/13 03:47:54;;;;;;;0.00;0.00;;;7.00;99.90;;;;;;5020423;28;20042;-64
2023/04/13 03:50:19;;;;;;;0.10;0.10;;;6.90;99.90;;;;;;5021123;28;20100;-63
2023/04/13 03:52:45;;;;;;;0.10;0.10;;;6.90;99.90;;;;;;5009542;28;20052;-64
2023/04/13 03:55:10;;;;;;;1.67;1.35;;;6.90;99.90;;;;;;5014432;28;20180;-63
2023/04/13 03:57:36;;;;;;;0.10;0.10;;;6.90;99.90;;;;;;5025097;28;20042;-64
2023/04/13 04:00:02;;;;;;;0.90;0.70;;;6.80;99.90;;;;;;5010847;28;20049;-64
2023/04/13 04:02:28;;;;;;;0.00;0.00;;;6.80;99.90;;;;;;5019603;28;20050;-63
2023/04/13 04:04:53;;;;;;;0.10;0.10;;;6.80;99.90;;;;;;5010880;28;20539;-63
2023/04/13 04:07:22;;;;;;;0.10;0.10;;;6.80;99.90;;;;;;5010875;28;20069;-63
2023/04/13 04:09:47;;;;;;;0.10;0.10;;;6.80;99.90;;;;;;5017033;28;20500;-63
2023/04/13 04:12:13;;;;;;;0.40;0.40;;;6.70;99.90;;;;;;5015117;28;20132;-63
2023/04/13 04:14:38;;;;;;;0.00;0.00;;;6.80;99.90;;;;;;5008729;28;20069;-63
2023/04/13 04:17:04;;;;;;;0.17;0.17;;;6.80;99.90;;;;;;5013191;28;20064;-63
2023/04/13 04:19:30;;;;;;;0.10;0.10;;;6.80;99.90;;;;;;5021679;28;20034;-64
2023/04/13 04:21:56;;;;;;;0.10;0.10;;;6.80;99.90;;;;;;5009921;28;20088;-63
2023/04/13 04:24:22;;;;;;;0.10;0.10;;;6.80;99.90;;;;;;5011165;28;20050;-63
2023/04/13 04:26:53;;;;;;;0.10;0.10;;;6.80;99.90;;;;;;5017470;28;20045;-63
2023/04/13 04:29:32;;;;;;;0.10;0.10;;;6.80;99.90;;;;;;5011366;28;20763;-63
2023/04/13 04:31:59;;;;;;;0.10;0.10;;;6.70;99.90;;;;;;5011165;28;20574;-63
2023/04/13 04:34:24;;;;;;;0.20;0.20;;;6.70;99.90;;;;;;5009977;28;20058;-63
2023/04/13 04:36:51;;;;;;;0.10;0.10;;;6.70;99.90;;;;;;5009156;28;20087;-63
2023/04/13 04:39:20;;;;;;;0.10;0.10;;;6.70;99.90;;;;;;5010373;28;20049;-63
2023/04/13 04:41:47;;;;;;;0.10;0.10;;;6.70;99.90;;;;;;5016498;28;20087;-63
2023/04/13 04:44:15;;;;;;;11.50;1.35;;;6.70;99.90;;;;;;5018287;28;20124;-63
2023/04/13 04:46:42;;;;;;;0.30;0.30;;;6.70;99.90;;;;;;5012664;28;20088;-63
2023/04/13 04:49:08;;;;;;;1.48;1.38;;;6.70;99.90;;;;;;5021929;28;20041;-63
2023/04/13 04:51:35;;;;;;;0.10;0.10;;;6.70;99.90;;;;;;5011739;28;20132;-63
2023/04/13 04:54:02;;;;;;;0.20;0.20;;;6.70;99.90;;;;;;5008427;28;20034;-63
2023/04/13 04:56:28;;;;;;;0.10;0.10;;;6.70;99.90;;;;;;5014082;28;20072;-63
2023/04/13 04:58:54;;;;;;;0.40;0.40;;;6.70;99.90;;;;;;5012403;28;20073;-63
2023/04/13 05:01:25;;;;;;;0.85;0.85;;;6.70;99.90;;;;;;5020029;28;20092;-63
2023/04/13 05:03:51;;;;;;;0.30;0.30;;;6.70;99.90;;;;;;5041127;28;20111;-63
2023/04/13 05:06:17;;;;;;;0.10;0.10;;;6.70;99.90;;;;;;5011756;28;20112;-63
2023/04/13 05:08:43;;;;;;;0.13;0.13;;;6.70;99.90;;;;;;5022726;28;20037;-63
2023/04/13 05:11:09;;;;;;;0.10;0.10;;;6.70;99.90;;;;;;5014166;28;20413;-63
2023/04/13 05:13:35;;;;;;;0.10;0.10;;;6.70;99.90;;;;;;5015626;28;20048;-63
2023/04/13 05:16:01;;;;;;;0.10;0.10;;;6.80;99.90;;;;;;5010002;28;20491;-63
2023/04/13 05:18:30;;;;;;;0.10;0.10;;;6.80;99.90;;;;;;5016093;28;20046;-63
2023/04/13 05:20:55;;;;;;;0.10;0.10;;;6.90;99.90;;;;;;5017174;28;20519;-63
2023/04/13 05:23:21;;;;;;;0.22;0.22;;;6.90;99.90;;;;;;5009944;28;20133;-64
2023/04/13 05:25:47;;;;;;;0.10;0.10;;;6.90;99.90;;;;;;5010969;28;20034;-63
2023/04/13 05:28:13;;;;;;;0.30;0.30;;;7.00;99.90;;;;;;5010539;28;20077;-63
2023/04/13 05:30:38;;;;;;;0.38;0.38;;;7.00;99.90;;;;;;5009578;28;20107;-63
2023/04/13 05:33:06;;;;;;;0.45;0.45;;;7.10;99.90;;;;;;5012189;28;20049;-63
2023/04/13 05:35:31;;;;;;;0.10;0.10;;;7.10;99.90;;;;;;5009293;28;20053;-63
2023/04/13 05:37:59;;;;;;;0.10;0.10;;;7.10;99.90;;;;;;5019646;28;20037;-63
2023/04/13 05:40:25;;;;;;;0.00;0.00;;;7.20;99.90;;;;;;5019157;28;20409;-63
2023/04/13 05:42:50;;;;;;;0.10;0.10;;;7.20;99.90;;;;;;5020285;28;20034;-63
2023/04/13 05:45:16;;;;;;;7.68;3.30;;;7.20;99.90;;;;;;5008069;28;20080;-63
2023/04/13 05:47:43;;;;;;;0.10;0.10;;;7.20;99.90;;;;;;5015472;28;20034;-63
2023/04/13 05:50:09;;;;;;;0.00;0.00;;;7.20;99.90;;;;;;5012687;28;20042;-63
2023/04/13 05:52:35;;;;;;;0.00;0.00;;;7.20;99.90;;;;;;5009426;28;20061;-63
2023/04/13 05:55:01;;;;;;;0.10;0.10;;;7.20;99.90;;;;;;5009937;28;20387;-63
2023/04/13 05:57:26;;;;;;;0.10;0.10;;;7.20;99.90;;;;;;5007475;28;20053;-63
2023/04/13 05:59:53;;;;;;;3.00;1.85;;;7.20;99.90;;;;;;5016209;28;20470;-63
2023/04/13 06:02:19;;;;;;;0.10;0.10;;;7.20;99.90;;;;;;5012566;28;20053;-62
2023/04/13 06:04:45;;;;;;;0.10;0.10;;;7.20;99.90;;;;;;5007781;28;20050;-63
2023/04/13 06:07:15;;;;;;;0.10;0.10;;;7.20;99.90;;;;;;5010347;28;20046;-63
2023/04/13 06:09:41;;;;;;;0.73;0.40;;;7.20;99.90;;;;;;5025835;28;20042;-63
2023/04/13 06:12:06;;;;;;;0.10;0.10;;;7.20;99.90;;;;;;5023603;28;20488;-63
2023/04/13 06:14:33;;;;;;;0.20;0.20;;;7.30;99.90;;;;;;5017199;28;20038;-63
2023/04/13 06:16:59;;;;;;;0.20;0.20;;;7.30;99.90;;;;;;5015995;28;20049;-62
2023/04/13 06:19:25;;;;;;;0.00;0.00;;;7.30;99.90;;;;;;5010862;28;20795;-63
2023/04/13 06:21:51;;;;;;;1.40;1.30;;;7.40;99.90;;;;;;5019373;28;20096;-63
2023/04/13 06:24:17;;;;;;;0.13;0.13;;;7.40;99.90;;;;;;5012038;28;20041;-63
2023/04/13 06:26:42;;;;;;;0.10;0.10;;;7.50;99.90;;;;;;5025578;28;20041;-63
2023/04/13 06:29:08;;;;;;;0.00;0.00;;;7.50;99.90;;;;;;5019506;28;20038;-63
2023/04/13 06:31:34;;;;;;;2.08;1.48;;;7.50;99.90;;;;;;5025909;28;20159;-64
2023/04/13 06:34:01;;;;;;;0.25;0.25;;;7.50;99.90;;;;;;5015699;28;20037;-63
2023/04/13 06:36:26;;;;;;;0.05;0.05;;;7.50;99.90;;;;;;5012153;28;20061;-63
2023/04/13 06:38:53;;;;;;;0.10;0.10;;;7.60;99.90;;;;;;5023079;28;20052;-63
2023/04/13 06:41:18;;;;;;;0.10;0.10;;;7.70;99.90;;;;;;5018007;28;20481;-63
2023/04/13 06:43:44;;;;;;;1.15;0.85;;;7.80;99.90;;;;;;5028405;28;20108;-63
2023/04/13 06:46:11;;;;;;;0.10;0.10;;;7.90;99.90;;;;;;5027664;28;20096;-63
2023/04/13 06:48:36;;;;;;;0.10;0.10;;;8.00;99.90;;;;;;5023493;28;20512;-63
2023/04/13 06:51:02;;;;;;;0.10;0.10;;;8.00;99.90;;;;;;5014606;28;20058;-63
2023/04/13 06:53:28;;;;;;;0.10;0.10;;;8.00;99.90;;;;;;5013979;28;20052;-63
2023/04/13 06:55:53;;;;;;;0.40;0.40;;;8.00;99.90;;;;;;5017399;28;20045;-63
2023/04/13 06:58:20;;;;;;;0.10;0.10;;;8.10;99.90;;;;;;5014604;28;20080;-63
2023/04/13 07:00:45;;;;;;;0.20;0.20;;;8.10;99.90;;;;;;5025719;28;20876;-63
2023/04/13 07:03:11;;;;;;;0.10;0.10;;;8.10;99.90;;;;;;5043043;28;20038;-63
2023/04/13 07:05:37;;;;;;;0.10;0.10;;;8.10;99.90;;;;;;5012707;28;20107;-63
2023/04/13 07:08:04;;;;;;;9.57;4.05;;;8.10;99.90;;;;;;5013027;28;20037;-63
2023/04/13 07:10:30;;;;;;;2.17;1.98;;;8.10;99.90;;;;;;5011140;28;20061;-63
2023/04/13 07:12:55;;;;;;;0.00;0.00;;;8.10;99.90;;;;;;5012075;28;20042;-63
2023/04/13 07:15:21;;;;;;;0.10;0.10;;;8.10;99.90;;;;;;5013158;28;20561;-63
2023/04/13 07:17:47;;;;;;;8.93;1.27;;;8.00;99.90;;;;;;5012026;28;20042;-63
2023/04/13 07:20:13;;;;;;;0.10;0.10;;;8.00;99.90;;;;;;5013396;28;20127;-63
2023/04/13 07:22:39;;;;;;;0.10;0.10;;;8.00;99.90;;;;;;5013018;28;20081;-63
2023/04/13 07:25:06;;;;;;;0.10;0.10;;;8.00;99.90;;;;;;5012150;28;20139;-63
2023/04/13 07:27:32;;;;;;;0.10;0.10;;;8.00;99.90;;;;;;5013019;28;20042;-64
2023/04/13 07:29:59;;;;;;;0.10;0.10;;;8.10;99.90;;;;;;5011384;28;20046;-62
2023/04/13 07:32:26;;;;;;;0.10;0.10;;;8.20;99.90;;;;;;5018826;28;20048;-63
2023/04/13 07:34:52;;;;;;;0.10;0.10;;;8.30;99.90;;;;;;5029149;28;20041;-63
2023/04/13 07:37:17;;;;;;;0.10;0.10;;;8.50;99.90;;;;;;5020180;28;20098;-63
2023/04/13 07:39:43;;;;;;;0.10;0.10;;;8.50;99.90;;;;;;5018145;28;20497;-63
2023/04/13 07:42:09;;;;;;;0.00;0.00;;;8.50;99.90;;;;;;5010939;28;20037;-64
2023/04/13 07:44:35;;;;;;;0.10;0.10;;;8.40;99.90;;;;;;5021401;28;20497;-63
2023/04/13 07:47:01;;;;;;;1.55;1.00;;;8.20;99.90;;;;;;5019272;28;20042;-64
2023/04/13 07:49:26;;;;;;;0.05;0.05;;;8.00;99.90;;;;;;5015598;28;20515;-64
2023/04/13 07:51:55;;;;;;;0.10;0.10;;;7.80;99.90;;;;;;5013994;28;20054;-64
2023/04/13 07:54:21;;;;;;;0.10;0.10;;;7.80;99.90;;;;;;5023229;28;20045;-64
2023/04/13 07:56:46;;;;;;;0.30;0.30;;;7.60;99.90;;;;;;5012410;28;20053;-64
2023/04/13 07:59:13;;;;;;;0.00;0.00;;;7.30;99.90;;;;;;5016703;28;20068;-64
2023/04/13 08:01:38;;;;;;;0.00;0.00;;;7.10;99.90;;;;;;5018784;28;20045;-64
2023/04/13 08:04:04;;;;;;;0.10;0.10;;;7.10;99.90;;;;;;5020076;28;20061;-65
2023/04/13 08:06:31;;;;;;;0.10;0.10;;;7.10;99.90;;;;;;5018786;28;20581;-65
2023/04/13 08:08:56;;;;;;;0.00;0.00;;;7.10;99.90;;;;;;5014808;28;20470;-65
2023/04/13 08:11:22;;;;;;;0.00;0.00;;;7.20;99.90;;;;;;5011382;28;20073;-64
2023/04/13 08:13:48;;;;;;;0.10;0.10;;;7.40;99.90;;;;;;5011124;28;20052;-65
2023/04/13 08:16:14;;;;;;;0.10;0.10;;;7.50;99.90;;;;;;5016579;28;20076;-65
2023/04/13 08:18:41;;;;;;;0.10;0.10;;;7.80;99.90;;;;;;5013757;28;20048;-65
2023/04/13 08:21:10;;;;;;;0.05;0.05;;;8.00;99.90;;;;;;5009885;28;20038;-65
2023/04/13 08:23:38;;;;;;;0.05;0.05;;;8.30;99.90;;;;;;5022241;28;20393;-65
2023/04/13 08:26:04;;;;;;;0.00;0.00;;;8.40;99.90;;;;;;5014639;28;20508;-66
2023/04/13 08:28:31;;;;;;;0.82;0.82;;;8.30;99.90;;;;;;5011339;28;20121;-66
2023/04/13 08:30:56;;;;;;;0.00;0.00;;;8.10;99.90;;;;;;5016245;28;20038;-66
2023/04/13 08:33:22;;;;;;;0.20;0.20;;;8.00;99.90;;;;;;5009281;28;20048;-66
2023/04/13 08:35:47;;;;;;;0.00;0.00;;;8.00;99.90;;;;;;5013720;28;20100;-65
2023/04/13 08:38:13;;;;;;;0.10;0.10;;;8.20;99.90;;;;;;5010250;28;20053;-64
2023/04/13 08:40:39;;;;;;;0.10;0.10;;;8.30;99.90;;;;;;5019162;28;20480;-65
2023/04/13 08:43:06;;;;;;;0.00;0.00;;;8.90;99.90;;;;;;5016883;28;20440;-65
2023/04/13 08:45:32;;;;;;;0.10;0.10;;;9.70;99.90;;;;;;5026493;28;20069;-65
2023/04/13 08:47:57;;;;;;;0.00;0.00;;;10.60;99.90;;;;;;5017211;28;20497;-66
2023/04/13 08:50:27;;;;;;;0.85;0.85;;;11.20;99.90;;;;;;5016407;28;20450;-66
2023/04/13 08:52:54;;;;;;;0.10;0.10;;;11.40;99.90;;;;;;5012188;28;20410;-66
2023/04/13 08:55:20;;;;;;;0.10;0.10;;;11.20;99.90;;;;;;5009426;28;20077;-65
2023/04/13 08:57:48;;;;;;;0.03;0.03;;;11.00;99.90;;;;;;5019416;28;20397;-65
2023/04/13 09:00:17;;;;;;;0.22;0.22;;;10.70;99.90;;;;;;5024040;28;20408;-66
2023/04/13 09:02:47;;;;;;;0.00;0.00;;;11.10;99.90;;;;;;5016764;28;21784;-65
2023/04/13 09:05:14;;;;;;;0.10;0.10;;;11.20;99.90;;;;;;5020176;28;20041;-65
2023/04/13 09:07:44;;;;;;;0.10;0.10;;;10.60;99.90;;;;;;5029194;28;20073;-65
2023/04/13 09:10:11;;;;;;;0.40;0.40;;;10.40;99.90;;;;;;5041326;28;20049;-65
2023/04/13 09:12:39;;;;;;;0.10;0.10;;;10.10;99.90;;;;;;5023511;28;20049;-65
2023/04/13 09:15:06;;;;;;;1.98;1.58;;;9.90;99.90;;;;;;5015369;28;20057;-65
2023/04/13 09:17:32;;;;;;;0.00;0.00;;;9.70;99.90;;;;;;5011451;28;20398;-65
2023/04/13 09:20:21;;;;;;;0.30;0.30;;;9.70;99.90;;;;;;5020040;28;20053;-65
2023/04/13 09:22:51;;;;;;;0.00;0.00;;;9.50;99.90;;;;;;5008834;28;20064;-64
2023/04/13 09:25:20;;;;;;;0.57;0.57;;;9.60;99.90;;;;;;5016664;28;20052;-64
2023/04/13 09:27:45;;;;;;;0.10;0.10;;;9.60;99.90;;;;;;5023222;28;20469;-65
2023/04/13 09:30:12;;;;;;;0.00;0.00;;;10.10;99.90;;;;;;5019214;28;20085;-65
2023/04/13 09:32:37;;;;;;;0.00;0.00;;;10.30;99.90;;;;;;5011911;28;20044;-64
2023/04/13 09:35:06;;;;;;;0.95;0.95;;;10.10;99.90;;;;;;5022201;28;20041;-64
2023/04/13 09:37:33;;;;;;;0.10;0.10;;;9.90;99.90;;;;;;5025843;28;20091;-64
2023/04/13 09:40:14;;;;;;;0.10;0.10;;;9.70;99.90;;;;;;5017183;28;20947;-64
2023/04/13 09:42:41;;;;;;;0.10;0.10;;;10.50;99.90;;;;;;5010827;28;20042;-64
2023/04/13 09:45:08;;;;;;;0.15;0.15;;;11.00;99.90;;;;;;5010481;28;20038;-64
2023/04/13 09:47:39;;;;;;;0.00;0.00;;;11.30;99.90;;;;;;5019825;28;20050;-62
2023/04/13 09:50:27;;;;;;;0.10;0.10;;;12.00;99.90;;;;;;5027079;28;20049;-64
2023/04/13 09:53:03;;;;;;;2.15;1.10;;;12.20;99.90;;;;;;5011323;28;20053;-63
2023/04/13 09:55:31;;;;;;;0.10;0.10;;;12.00;99.90;;;;;;5016470;28;20401;-63
2023/04/13 09:58:10;;;;;;;1.55;1.08;;;11.80;99.90;;;;;;5016865;28;20138;-63
2023/04/13 10:00:41;;;;;;;0.10;0.10;;;11.40;99.90;;;;;;5026999;28;20072;-63
2023/04/13 10:03:11;;;;;;;0.20;0.20;;;11.00;99.90;;;;;;5012901;28;20049;-63
2023/04/13 10:05:37;;;;;;;0.10;0.10;;;10.50;99.90;;;;;;5009473;28;20052;-63
2023/04/13 10:08:04;;;;;;;0.20;0.20;;;10.30;99.90;;;;;;5014144;28;20073;-63
2023/04/13 10:10:30;;;;;;;0.10;0.10;;;9.90;99.90;;;;;;5021103;28;20045;-64
2023/04/13 10:12:57;;;;;;;1.88;1.02;;;9.60;99.90;;;;;;5014913;28;20029;-64
2023/04/13 10:15:49;;;;;;;0.13;0.13;;;9.40;99.90;;;;;;5019592;28;20498;-65
2023/04/13 10:18:24;;;;;;;0.30;0.30;;;9.10;99.90;;;;;;4992657;28;20105;-64
2023/04/13 10:20:51;;;;;;;0.10;0.10;;;8.70;99.90;;;;;;5009466;28;20571;-65
2023/04/13 10:23:17;;;;;;;0.10;0.10;;;8.40;99.90;;;;;;5009821;28;20050;-65
2023/04/13 10:25:53;;;;;;;0.00;0.00;;;8.30;99.90;;;;;;5012293;28;20540;-65
2023/04/13 10:28:20;;;;;;;0.52;0.52;;;8.20;99.90;;;;;;5010977;28;20073;-65
2023/04/13 10:30:50;;;;;;;0.45;0.43;;;8.20;99.90;;;;;;5013865;28;20048;-65
2023/04/13 10:33:16;;;;;;;0.10;0.10;;;8.30;99.90;;;;;;5008768;28;20704;-65
2023/04/13 10:35:52;;;;;;;0.98;0.95;;;8.40;99.90;;;;;;5009706;28;20053;-65
2023/04/13 10:38:18;;;;;;;0.08;0.08;;;8.60;99.90;;;;;;5008563;28;20516;-65
2023/04/13 10:40:45;;;;;;;0.10;0.10;;;8.70;99.90;;;;;;5011780;28;20042;-65
2023/04/13 10:43:11;;;;;;;0.40;0.40;;;8.80;99.90;;;;;;5007931;28;20046;-65
2023/04/13 10:45:37;;;;;;;0.10;0.10;;;9.00;99.90;;;;;;5010722;28;20448;-65
2023/04/13 10:48:03;;;;;;;0.22;0.22;;;9.10;99.90;;;;;;5026757;28;20055;-64
2023/04/13 10:50:28;;;;;;;1.02;1.00;;;9.20;99.90;;;;;;5015948;28;20457;-65
2023/04/13 10:53:05;;;;;;;2.72;1.63;;;9.20;99.90;;;;;;5009828;28;20133;-65
2023/04/13 10:55:35;;;;;;;0.10;0.10;;;9.00;99.90;;;;;;5025536;28;20142;-65
2023/04/13 10:58:01;;;;;;;0.10;0.10;;;8.90;99.90;;;;;;5027495;28;20049;-66
2023/04/13 11:00:29;;;;;;;0.10;0.10;;;8.80;99.90;;;;;;5018919;28;20049;-65
2023/04/13 11:03:01;;;;;;;0.00;0.00;;;8.80;99.90;;;;;;5019502;28;20044;-65
2023/04/13 11:05:26;;;;;;;0.10;0.10;;;8.70;99.90;;;;;;5012969;28;20409;-65
2023/04/13 11:07:53;;;;;;;0.00;0.00;;;8.70;99.90;;;;;;5011297;28;20049;-65
2023/04/13 11:10:26;;;;;;;0.00;0.00;;;8.70;99.90;;;;;;5012752;28;20054;-66
2023/04/13 11:12:53;;;;;;;0.10;0.10;;;8.70;99.90;;;;;;5026910;28;20037;-66
2023/04/13 11:15:23;;;;;;;0.40;0.40;;;8.80;99.90;;;;;;5022929;28;20046;-65
2023/04/13 11:17:58;;;;;;;0.10;0.10;;;8.90;99.90;;;;;;5024611;28;20052;-64
2023/04/13 11:20:38;;;;;;;0.10;0.10;;;9.00;99.90;;;;;;5014366;28;20085;-66
2023/04/13 11:23:05;;;;;;;0.00;0.00;;;9.10;99.90;;;;;;5025327;28;20052;-66
2023/04/13 11:25:35;;;;;;;4.20;1.75;;;9.30;99.90;;;;;;5011826;28;20045;-65
2023/04/13 11:28:02;;;;;;;0.00;0.00;;;9.30;99.90;;;;;;5014349;28;20046;-66
2023/04/13 11:30:31;;;;;;;0.00;0.00;;;9.40;99.90;;;;;;5014730;28;20042;-66
2023/04/13 11:32:59;;;;;;;1.02;0.95;;;9.40;99.90;;;;;;5027145;28;20040;-65
2023/04/13 11:35:25;;;;;;;3.40;2.45;;;9.50;99.90;;;;;;5026174;28;20049;-65
2023/04/13 11:37:53;;;;;;;0.40;0.40;;;9.70;99.90;;;;;;5010774;28;20042;-65
2023/04/13 11:40:24;;;;;;;1.52;1.45;;;10.00;99.90;;;;;;5012478;28;20056;-65
2023/04/13 11:42:52;;;;;;;0.10;0.10;;;9.90;99.90;;;;;;5012894;28;20060;-64
2023/04/13 11:45:20;;;;;;;0.10;0.10;;;9.90;99.90;;;;;;5016603;28;20054;-65
2023/04/13 11:47:46;;;;;;;0.20;0.20;;;10.20;99.90;;;;;;5012408;28;20049;-64
2023/04/13 11:50:13;;;;;;;0.30;0.30;;;10.20;99.90;;;;;;5013044;28;20433;-64
2023/04/13 11:52:40;;;;;;;0.28;0.28;;;10.20;99.90;;;;;;5015704;28;20397;-64
2023/04/13 11:55:07;;;;;;;1.55;1.27;;;10.30;99.90;;;;;;5014855;28;20601;-64
2023/04/13 11:57:33;;;;;;;0.10;0.10;;;10.30;99.90;;;;;;5011170;28;20049;-64
2023/04/13 11:59:59;;;;;;;0.63;0.63;;;10.20;99.90;;;;;;5010942;28;20049;-64
2023/04/13 12:02:29;;;;;;;0.00;0.00;;;10.20;99.90;;;;;;5011335;28;20050;-64
2023/04/13 12:04:56;;;;;;;4.07;2.28;;;10.40;99.90;;;;;;5009763;28;20054;-64
2023/04/13 12:07:23;;;;;;;0.10;0.10;;;10.40;99.90;;;;;;5012858;28;20405;-64
2023/04/13 12:09:50;;;;;;;0.10;0.10;;;10.40;99.90;;;;;;5011854;28;20069;-64
2023/04/13 12:12:21;;;;;;;0.22;0.22;;;10.40;99.90;;;;;;5010964;28;20050;-64
2023/04/13 12:14:58;;;;;;;0.00;0.00;;;10.40;99.90;;;;;;5014580;28;20515;-64
2023/04/13 12:17:33;;;;;;;0.57;0.57;;;10.50;99.90;;;;;;5013415;28;20075;-64
2023/04/13 12:20:00;;;;;;;1.00;1.00;;;10.50;99.90;;;;;;5017390;28;20655;-63
2023/04/13 12:22:43;;;;;;;0.10;0.10;;;10.50;99.90;;;;;;5050662;28;20100;-64
2023/04/13 12:25:19;;;;;;;0.05;0.05;;;10.60;99.90;;;;;;5015007;28;20108;-63
2023/04/13 12:27:49;;;;;;;0.30;0.30;;;10.60;99.90;;;;;;5009841;28;20080;-63
2023/04/13 12:30:16;;;;;;;0.85;0.52;;;10.60;99.90;;;;;;5011071;28;20551;-64
2023/04/13 12:32:46;;;;;;;0.60;0.60;;;10.60;99.90;;;;;;5012689;28;20057;-64
2023/04/13 12:35:12;;;;;;;0.10;0.10;;;10.60;99.90;;;;;;5012835;28;20044;-63
2023/04/13 12:37:40;;;;;;;0.10;0.10;;;10.50;99.90;;;;;;5012379;28;20038;-63
2023/04/13 12:40:11;;;;;;;4.93;1.15;;;10.50;99.90;;;;;;5009745;28;20068;-63
2023/04/13 12:42:46;;;;;;;0.10;0.10;;;10.50;99.90;;;;;;5012998;28;20124;-63
2023/04/13 12:45:12;;;;;;;1.45;0.70;;;10.50;99.90;;;;;;5011065;28;20161;-64
2023/04/13 12:47:38;;;;;;;0.10;0.10;;;10.50;99.90;;;;;;5012535;28;20072;-63
2023/04/13 12:50:05;;;;;;;0.82;0.82;;;10.50;99.90;;;;;;5016215;28;20045;-63
2023/04/13 12:52:31;;;;;;;1.27;1.20;;;10.50;99.90;;;;;;5015794;28;20093;-63
2023/04/13 12:55:01;;;;;;;3.75;1.95;;;10.50;99.90;;;;;;5013037;28;20076;-64
2023/04/13 12:57:28;;;;;;;0.30;0.30;;;10.50;99.90;;;;;;5009647;28;20117;-63
2023/04/13 12:59:55;;;;;;;0.10;0.10;;;10.50;99.90;;;;;;5014571;28;20111;-63